createdAt,value
2019-02-20T00:00:40.656Z,8.30
2019-02-20T00:03:44.047Z,8.30
2019-02-20T00:06:46.978Z,8.10
2019-02-20T00:09:50.233Z,8.10
2019-02-20T00:12:53.196Z,8.10
2019-02-20T00:15:56.152Z,8.20
2019-02-20T00:18:59.553Z,8.00
2019-02-20T00:22:02.760Z,8.10
2019-02-20T00:25:06.247Z,8.00
2019-02-20T00:28:09.560Z,8.10
2019-02-20T00:31:12.496Z,7.90
2019-02-20T00:34:15.438Z,7.90
2019-02-20T00:37:18.375Z,8.00
2019-02-20T00:40:21.324Z,8.10
2019-02-20T00:43:25.788Z,8.20
2019-02-20T00:46:37.165Z,8.10
2019-02-20T00:49:43.455Z,8.20
2019-02-20T00:52:54.854Z,8.00
2019-02-20T00:55:57.796Z,8.10
2019-02-20T00:59:01.952Z,8.00
2019-02-20T01:02:05.268Z,8.00
2019-02-20T01:05:08.249Z,8.10
2019-02-20T01:08:11.286Z,8.20
2019-02-20T01:11:14.510Z,8.30
2019-02-20T01:14:18.136Z,8.10
2019-02-20T01:17:22.204Z,8.10
2019-02-20T01:20:25.159Z,8.00
2019-02-20T01:23:28.080Z,8.20
2019-02-20T01:26:31.046Z,8.30
2019-02-20T01:29:34.359Z,8.40
2019-02-20T01:32:37.307Z,8.50
2019-02-20T01:35:40.253Z,8.50
2019-02-20T01:38:43.186Z,8.60
2019-02-20T01:41:46.476Z,8.60
2019-02-20T01:44:49.414Z,8.70
2019-02-20T01:47:52.763Z,8.60
2019-02-20T01:50:56.575Z,8.70
2019-02-20T01:54:00.014Z,8.60
2019-02-20T01:57:03.070Z,8.60
2019-02-20T02:00:07.537Z,8.50
2019-02-20T02:03:11.082Z,8.50
2019-02-20T02:06:14.191Z,8.50
2019-02-20T02:09:17.126Z,8.40
2019-02-20T02:12:20.841Z,8.50
2019-02-20T02:15:24.172Z,8.40
2019-02-20T02:18:27.138Z,8.30
2019-02-20T02:21:30.089Z,8.50
2019-02-20T02:24:33.333Z,8.40
2019-02-20T02:27:36.695Z,8.50
2019-02-20T02:30:39.997Z,8.50
2019-02-20T02:33:42.947Z,8.40
2019-02-20T02:36:45.906Z,8.40
2019-02-20T02:39:48.862Z,8.50
2019-02-20T02:42:52.149Z,8.50
2019-02-20T02:45:55.880Z,8.60
2019-02-20T02:48:59.473Z,8.60
2019-02-20T02:52:02.438Z,8.60
2019-02-20T02:55:05.613Z,8.50
2019-02-20T02:58:08.560Z,8.50
2019-02-20T03:01:11.760Z,8.40
2019-02-20T03:04:14.827Z,8.30
2019-02-20T03:07:18.039Z,8.40
2019-02-20T03:10:21.008Z,8.50
2019-02-20T03:13:23.923Z,8.40
2019-02-20T03:16:28.318Z,8.50
2019-02-20T03:19:31.694Z,8.40
2019-02-20T03:22:34.657Z,8.50
2019-02-20T03:25:37.602Z,8.50
2019-02-20T03:28:40.869Z,8.40
2019-02-20T03:31:43.828Z,8.40
2019-02-20T03:34:47.159Z,8.30
2019-02-20T03:37:50.758Z,8.30
2019-02-20T03:40:53.707Z,8.30
2019-02-20T03:43:56.639Z,8.20
2019-02-20T03:46:59.607Z,8.20
2019-02-20T03:50:02.658Z,8.30
2019-02-20T03:53:05.983Z,8.20
2019-02-20T03:56:10.102Z,8.20
2019-02-20T03:59:13.683Z,8.30
2019-02-20T04:02:17.076Z,8.30
2019-02-20T04:05:20.020Z,8.30
2019-02-20T04:08:23.653Z,8.30
2019-02-20T04:11:26.957Z,8.30
2019-02-20T04:14:30.119Z,8.40
2019-02-20T04:17:33.087Z,8.30
2019-02-20T04:20:36.320Z,8.50
2019-02-20T04:23:39.645Z,8.40
2019-02-20T04:26:42.596Z,8.30
2019-02-20T04:29:45.532Z,8.40
2019-02-20T04:32:48.479Z,8.40
2019-02-20T04:35:51.440Z,8.20
2019-02-20T04:38:54.372Z,8.10
2019-02-20T04:41:57.323Z,8.10
2019-02-20T04:45:00.601Z,8.10
2019-02-20T04:48:03.562Z,8.20
2019-02-20T04:51:06.859Z,8.20
2019-02-20T04:54:13.291Z,8.30
2019-02-20T04:57:14.672Z,8.30
2019-02-20T05:00:17.921Z,8.40
2019-02-20T05:03:23.118Z,8.40
2019-02-20T05:06:26.598Z,8.30
2019-02-20T05:09:30.179Z,8.10
2019-02-20T05:12:33.765Z,8.10
2019-02-20T05:15:37.006Z,8.10
2019-02-20T05:18:40.653Z,8.20
2019-02-20T05:21:43.584Z,8.20
2019-02-20T05:24:46.532Z,8.10
2019-02-20T05:27:50.159Z,8.10
2019-02-20T05:30:53.132Z,8.10
2019-02-20T05:33:56.093Z,8.20
2019-02-20T05:36:59.339Z,8.20
2019-02-20T05:40:02.528Z,8.20
2019-02-20T05:43:07.293Z,8.20
2019-02-20T05:46:10.305Z,8.40
2019-02-20T05:49:13.264Z,8.20
2019-02-20T05:52:17.761Z,8.30
2019-02-20T05:55:21.034Z,8.40
2019-02-20T05:58:24.036Z,8.40
2019-02-20T06:01:27.416Z,8.50
2019-02-20T06:04:30.782Z,8.40
2019-02-20T06:07:34.127Z,8.40
2019-02-20T06:10:37.133Z,8.10
2019-02-20T06:13:40.413Z,8.00
2019-02-20T06:16:44.122Z,8.00
2019-02-20T06:19:47.487Z,8.00
2019-02-20T06:22:50.408Z,7.80
2019-02-20T06:25:53.731Z,7.90
2019-02-20T06:28:57.031Z,7.80
2019-02-20T06:32:00.378Z,7.80
2019-02-20T06:35:03.326Z,7.80
2019-02-20T06:38:10.662Z,7.80
2019-02-20T06:41:13.124Z,7.80
2019-02-20T06:44:16.473Z,7.70
2019-02-20T06:47:19.440Z,7.70
2019-02-20T06:50:22.374Z,7.80
2019-02-20T06:53:25.339Z,7.80
2019-02-20T06:56:28.280Z,7.80
2019-02-20T06:59:31.611Z,7.80
2019-02-20T07:02:35.801Z,8.00
2019-02-20T07:05:42.094Z,7.80
2019-02-20T07:09:42.179Z,7.80
2019-02-20T07:13:35.901Z,7.80
2019-02-20T07:17:57.052Z,7.70
2019-02-20T07:22:06.413Z,7.60
2019-02-20T07:25:46.928Z,7.70
2019-02-20T07:29:53.036Z,7.80
2019-02-20T07:32:56.670Z,7.90
2019-02-20T07:35:59.961Z,8.10
2019-02-20T07:39:04.628Z,8.20
2019-02-20T07:42:09.487Z,8.20
2019-02-20T07:45:14.237Z,8.30
2019-02-20T07:48:17.873Z,8.30
2019-02-20T07:51:21.218Z,8.30
2019-02-20T07:54:24.176Z,8.30
2019-02-20T07:57:27.517Z,8.40
2019-02-20T08:00:30.489Z,8.40
2019-02-20T08:03:33.575Z,8.50
2019-02-20T08:06:37.510Z,8.50
2019-02-20T08:09:40.901Z,11.90
2019-02-20T08:12:43.936Z,13.50
2019-02-20T08:15:47.670Z,11.50
2019-02-20T08:18:50.631Z,10.30
2019-02-20T08:21:53.581Z,9.70
2019-02-20T08:24:57.643Z,9.30
2019-02-20T08:28:00.597Z,9.30
2019-02-20T08:31:04.549Z,9.00
2019-02-20T08:34:09.697Z,9.00
2019-02-20T08:37:12.628Z,9.00
2019-02-20T08:40:15.751Z,9.10
2019-02-20T08:43:18.717Z,9.10
2019-02-20T08:46:21.672Z,9.00
2019-02-20T08:49:25.007Z,9.10
2019-02-20T08:52:27.991Z,9.30
2019-02-20T08:55:32.309Z,9.40
2019-02-20T08:58:35.732Z,9.30
2019-02-20T09:01:38.750Z,9.20
2019-02-20T09:04:43.476Z,9.10
2019-02-20T09:07:47.167Z,9.00
2019-02-20T09:10:50.446Z,9.10
2019-02-20T09:13:53.843Z,9.10
2019-02-20T09:16:56.804Z,9.20
2019-02-20T09:20:00.150Z,9.30
2019-02-20T09:23:03.340Z,9.40
2019-02-20T09:26:06.303Z,9.20
2019-02-20T09:29:09.708Z,9.30
2019-02-20T09:32:14.854Z,9.30
2019-02-20T09:35:17.810Z,9.30
2019-02-20T09:38:21.071Z,9.30
2019-02-20T09:41:24.017Z,9.50
2019-02-20T09:44:28.338Z,9.60
2019-02-20T09:47:31.666Z,9.70
2019-02-20T09:50:34.667Z,9.80
2019-02-20T09:53:37.625Z,9.80
2019-02-20T09:56:40.925Z,9.80
2019-02-20T09:59:44.201Z,9.80
2019-02-20T10:02:47.502Z,9.90
2019-02-20T10:05:50.828Z,9.90
2019-02-20T10:08:54.117Z,9.70
2019-02-20T10:11:57.077Z,9.60
2019-02-20T10:15:00.349Z,9.80
2019-02-20T10:18:03.300Z,9.90
2019-02-20T10:21:06.228Z,9.80
2019-02-20T10:24:09.595Z,9.70
2019-02-20T10:27:12.568Z,9.80
2019-02-20T10:30:15.988Z,10.00
2019-02-20T10:33:19.726Z,10.00
2019-02-20T10:36:22.662Z,9.90
2019-02-20T10:39:25.624Z,9.90
2019-02-20T10:42:28.559Z,10.00
2019-02-20T10:45:31.895Z,10.10
2019-02-20T10:48:34.863Z,10.20
2019-02-20T10:51:37.798Z,10.10
2019-02-20T10:54:41.064Z,10.30
2019-02-20T10:57:44.002Z,10.30
2019-02-20T11:00:47.151Z,10.40
2019-02-20T11:03:50.127Z,10.30
2019-02-20T11:06:53.194Z,10.20
2019-02-20T11:09:56.198Z,10.40
2019-02-20T11:12:59.127Z,10.50
2019-02-20T11:16:02.262Z,10.50
2019-02-20T11:19:05.211Z,10.60
2019-02-20T11:22:08.543Z,10.50
2019-02-20T11:25:11.883Z,10.50
2019-02-20T11:28:15.035Z,10.40
2019-02-20T11:31:18.021Z,10.50
2019-02-20T11:34:21.090Z,10.50
2019-02-20T11:37:24.471Z,10.60
2019-02-20T11:40:27.451Z,10.60
2019-02-20T11:43:30.709Z,10.60
2019-02-20T11:46:34.025Z,10.60
2019-02-20T11:49:37.304Z,10.60
2019-02-20T11:52:40.263Z,10.80
2019-02-20T11:55:43.526Z,10.80
2019-02-20T11:58:46.787Z,10.70
2019-02-20T12:01:50.723Z,10.80
2019-02-20T12:04:55.159Z,10.80
2019-02-20T12:07:58.099Z,10.80
2019-02-20T12:11:02.135Z,11.00
2019-02-20T12:14:05.184Z,11.20
2019-02-20T12:17:08.492Z,11.40
2019-02-20T12:20:11.918Z,11.70
2019-02-20T12:23:14.861Z,11.70
2019-02-20T12:26:17.795Z,11.70
2019-02-20T12:29:20.792Z,11.70
2019-02-20T12:32:23.720Z,11.80
2019-02-20T12:35:26.700Z,11.60
2019-02-20T12:38:30.262Z,11.70
2019-02-20T12:41:33.951Z,11.60
2019-02-20T12:44:36.901Z,11.60
2019-02-20T12:47:39.831Z,11.60
2019-02-20T12:50:42.795Z,11.80
2019-02-20T12:53:45.723Z,11.80
2019-02-20T12:56:48.671Z,11.90
2019-02-20T12:59:51.755Z,12.00
2019-02-20T13:02:55.195Z,11.90
2019-02-20T13:05:58.774Z,11.90
2019-02-20T13:09:03.848Z,11.70
2019-02-20T13:12:09.524Z,11.70
2019-02-20T13:15:12.489Z,11.70
2019-02-20T13:18:15.846Z,11.80
2019-02-20T13:21:19.167Z,11.80
2019-02-20T13:24:22.600Z,11.80
2019-02-20T13:27:26.269Z,11.80
2019-02-20T13:30:29.591Z,12.10
2019-02-20T13:33:32.627Z,12.20
2019-02-20T13:36:36.535Z,12.20
2019-02-20T13:39:39.458Z,12.10
2019-02-20T13:42:43.757Z,12.10
2019-02-20T13:45:47.099Z,12.10
2019-02-20T13:48:50.071Z,12.10
2019-02-20T13:51:53.028Z,12.00
2019-02-20T13:54:55.971Z,12.00
2019-02-20T13:57:58.928Z,12.20
2019-02-20T14:01:02.197Z,12.10
2019-02-20T14:04:06.532Z,12.00
2019-02-20T14:07:10.106Z,12.00
2019-02-20T14:10:13.183Z,12.10
2019-02-20T14:13:17.909Z,12.00
2019-02-20T14:16:21.672Z,12.00
2019-02-20T14:19:25.436Z,11.90
2019-02-20T14:22:28.407Z,12.00
2019-02-20T14:25:32.148Z,11.90
2019-02-20T14:28:35.495Z,12.00
2019-02-20T14:31:39.272Z,12.00
2019-02-20T14:34:45.531Z,11.90
2019-02-20T14:37:48.618Z,11.90
2019-02-20T14:40:51.628Z,11.90
2019-02-20T14:43:55.048Z,11.80
2019-02-20T14:46:58.228Z,11.80
2019-02-20T14:50:21.534Z,11.80
2019-02-20T14:53:24.502Z,11.70
2019-02-20T14:56:28.160Z,11.90
2019-02-20T14:59:31.541Z,11.90
2019-02-20T15:02:34.504Z,11.90
2019-02-20T15:05:37.777Z,11.80
2019-02-20T15:08:41.142Z,11.80
2019-02-20T15:11:44.107Z,11.70
2019-02-20T15:14:48.277Z,11.60
2019-02-20T15:17:51.233Z,11.50
2019-02-20T15:20:54.662Z,11.60
2019-02-20T15:23:58.035Z,11.60
2019-02-20T15:27:01.444Z,11.60
2019-02-20T15:30:07.047Z,11.60
2019-02-20T15:33:10.117Z,11.60
2019-02-20T15:36:13.401Z,11.60
2019-02-20T15:39:17.276Z,11.60
2019-02-20T15:42:21.141Z,11.60
2019-02-20T15:45:24.214Z,11.50
2019-02-20T15:48:28.710Z,11.50
2019-02-20T15:51:32.063Z,11.40
2019-02-20T15:54:37.300Z,11.40
2019-02-20T15:57:40.916Z,11.40
2019-02-20T16:00:43.888Z,11.50
2019-02-20T16:03:47.192Z,11.40
2019-02-20T16:06:51.113Z,11.40
2019-02-20T16:09:55.348Z,11.40
2019-02-20T16:12:58.829Z,11.30
2019-02-20T16:16:01.770Z,11.30
2019-02-20T16:19:05.135Z,11.20
2019-02-20T16:22:08.100Z,11.20
2019-02-20T16:25:12.385Z,11.20
2019-02-20T16:28:15.337Z,11.10
2019-02-20T16:31:18.631Z,11.20
2019-02-20T16:34:22.023Z,11.20
2019-02-20T16:37:25.993Z,11.20
2019-02-20T16:40:29.335Z,11.20
2019-02-20T16:43:32.327Z,11.20
2019-02-20T16:46:35.490Z,11.20
2019-02-20T16:49:39.182Z,11.20
2019-02-20T16:52:42.154Z,11.10
2019-02-20T16:55:45.112Z,11.20
2019-02-20T16:58:48.677Z,11.20
2019-02-20T17:01:53.000Z,11.10
2019-02-20T17:04:59.216Z,11.00
2019-02-20T17:08:01.495Z,10.90
2019-02-20T17:11:04.550Z,11.00
2019-02-20T17:14:09.128Z,10.90
2019-02-20T17:17:12.631Z,10.90
2019-02-20T17:20:17.609Z,10.90
2019-02-20T17:23:22.025Z,10.90
2019-02-20T17:26:25.567Z,10.90
2019-02-20T17:29:28.516Z,10.80
2019-02-20T17:32:31.846Z,10.80
2019-02-20T17:35:35.106Z,10.70
2019-02-20T17:38:38.454Z,10.60
2019-02-20T17:41:41.762Z,10.50
2019-02-20T17:44:45.093Z,10.50
2019-02-20T17:47:48.798Z,10.50
2019-02-20T17:50:51.865Z,10.40
2019-02-20T17:53:54.792Z,10.40
2019-02-20T17:56:57.772Z,10.30
2019-02-20T18:00:00.745Z,10.30
2019-02-20T18:03:04.612Z,10.30
2019-02-20T18:06:08.128Z,10.20
2019-02-20T18:09:11.269Z,10.20
2019-02-20T18:12:14.607Z,10.20
2019-02-20T18:15:17.915Z,10.20
2019-02-20T18:18:21.559Z,10.10
2019-02-20T18:21:24.524Z,10.00
2019-02-20T18:24:27.495Z,9.90
2019-02-20T18:27:30.562Z,9.90
2019-02-20T18:30:35.097Z,9.80
2019-02-20T18:33:38.134Z,9.90
2019-02-20T18:36:41.587Z,9.80
2019-02-20T18:39:45.414Z,9.70
2019-02-20T18:42:48.423Z,9.70
2019-02-20T18:45:51.713Z,9.80
2019-02-20T18:48:55.440Z,9.60
2019-02-20T18:51:58.898Z,9.50
2019-02-20T18:55:05.979Z,9.50
2019-02-20T18:58:06.835Z,9.30
2019-02-20T19:01:10.186Z,9.30
2019-02-20T19:04:13.237Z,9.20
2019-02-20T19:07:17.589Z,9.00
2019-02-20T19:10:33.358Z,9.10
2019-02-20T19:14:22.117Z,8.90
2019-02-20T19:18:06.690Z,9.00
2019-02-20T19:22:09.892Z,8.90
2019-02-20T19:26:27.730Z,8.80
2019-02-20T19:30:20.596Z,8.80
2019-02-20T19:34:21.226Z,8.60
2019-02-20T19:38:06.493Z,8.50
2019-02-20T19:42:05.047Z,8.40
2019-02-20T19:45:54.148Z,8.30
2019-02-20T19:49:48.157Z,8.30
2019-02-20T19:53:30.657Z,8.40
2019-02-20T19:57:26.855Z,8.20
2019-02-20T20:01:20.240Z,8.20
2019-02-20T20:05:07.641Z,8.20
2019-02-20T20:08:59.877Z,8.20
2019-02-20T20:12:53.599Z,8.20
2019-02-20T20:16:34.217Z,8.20
2019-02-20T20:20:20.203Z,8.20
2019-02-20T20:24:27.515Z,8.20
2019-02-20T20:28:34.868Z,8.20
2019-02-20T20:32:34.108Z,8.40
2019-02-20T20:36:23.479Z,8.50
2019-02-20T20:40:22.018Z,8.60
2019-02-20T20:44:15.215Z,8.50
2019-02-20T20:48:11.967Z,8.50
2019-02-20T20:52:41.137Z,8.50
2019-02-20T20:56:41.399Z,8.50
2019-02-20T21:00:20.869Z,8.50
2019-02-20T21:03:24.782Z,8.40
2019-02-20T21:07:23.217Z,8.40
2019-02-20T21:11:30.421Z,8.30
2019-02-20T21:15:53.252Z,8.40
2019-02-20T21:19:43.867Z,8.40
2019-02-20T21:23:37.227Z,8.50
2019-02-20T21:27:29.013Z,8.40
2019-02-20T21:31:06.989Z,8.40
2019-02-20T21:34:59.695Z,8.20
2019-02-20T21:38:37.123Z,8.20
2019-02-20T21:42:40.151Z,8.20
2019-02-20T21:46:19.719Z,8.20
2019-02-20T21:50:51.096Z,8.20
2019-02-20T21:54:50.798Z,8.40
2019-02-20T21:58:37.505Z,8.30
2019-02-20T22:02:05.792Z,8.30
2019-02-20T22:06:03.107Z,8.30
2019-02-20T22:09:57.606Z,8.30
2019-02-20T22:14:06.366Z,8.10
2019-02-20T22:18:07.098Z,8.20
2019-02-20T22:22:19.289Z,8.30
2019-02-20T22:26:08.789Z,7.80
2019-02-20T22:30:21.055Z,8.30
2019-02-20T22:34:33.518Z,8.10
2019-02-20T22:38:28.365Z,8.20
2019-02-20T22:42:51.028Z,8.30
2019-02-20T22:46:18.544Z,8.40
2019-02-20T22:50:10.241Z,8.20
2019-02-20T22:54:07.547Z,8.10
2019-02-20T22:57:48.645Z,8.10
2019-02-20T23:02:06.870Z,8.40
2019-02-20T23:05:57.484Z,8.60
2019-02-20T23:09:35.803Z,8.50
2019-02-20T23:13:40.870Z,8.50
2019-02-20T23:16:44.539Z,8.50
2019-02-20T23:19:47.489Z,8.60
2019-02-20T23:22:50.448Z,8.70
2019-02-20T23:25:54.510Z,8.80
2019-02-20T23:28:57.960Z,8.80
2019-02-20T23:32:01.027Z,8.90
2019-02-20T23:35:04.518Z,8.90
2019-02-20T23:38:07.476Z,8.90
2019-02-20T23:41:10.769Z,8.80
2019-02-20T23:44:13.711Z,8.70
2019-02-20T23:47:16.665Z,8.80
2019-02-20T23:50:19.616Z,8.80
2019-02-20T23:53:22.964Z,8.80
2019-02-20T23:56:26.227Z,8.80
2019-02-20T23:59:29.264Z,8.90
